Time;durP1;ratioP1;P1;durP2;ratioP2;P2;SDS_P1;SDS_P2;PMS_P1;PMS_P2;Temp;Humidity;BMP_temperature;BMP_pressure;BME280_temperature;BME280_humidity;BME280_pressure;Samples;Min_cycle;Max_cycle;Signal;HPM_P1;HPM_P2
2023/03/28 00:00:07;;;;;;;7.03;1.88;;;;;;;1.77;97.79;101433.94;5008243;28;20096;-81
2023/03/28 00:02:33;;;;;;;9.13;1.67;;;;;;;1.80;97.55;101433.16;5007800;28;20049;-81
2023/03/28 00:05:01;;;;;;;7.20;2.25;;;;;;;1.76;96.62;101429.56;5005903;28;20052;-80
2023/03/28 00:07:28;;;;;;;7.15;1.60;;;;;;;1.64;96.97;101427.41;5006146;28;20050;-85
2023/03/28 00:09:56;;;;;;;13.85;1.55;;;;;;;1.64;97.59;101436.81;4988837;28;20042;-77
2023/03/28 00:12:23;;;;;;;6.53;2.80;;;;;;;1.67;96.87;101434.38;5003298;28;20547;-81
2023/03/28 00:14:49;;;;;;;7.03;1.30;;;;;;;1.67;96.52;101423.16;5003833;28;20057;-86
2023/03/28 00:17:16;;;;;;;9.23;2.05;;;;;;;1.68;96.47;101443.84;5004082;28;20110;-80
2023/03/28 00:19:45;;;;;;;6.38;1.58;;;;;;;1.62;97.07;101447.09;5004480;28;20042;-77
2023/03/28 00:22:13;;;;;;;9.20;1.48;;;;;;;1.52;97.50;101449.25;5005598;28;20053;-82
2023/03/28 00:24:39;;;;;;;4.07;1.80;;;;;;;1.37;98.17;101458.13;4991093;28;20370;-78
2023/03/28 00:27:07;;;;;;;6.38;1.40;;;;;;;1.26;98.91;101456.78;5002039;28;20050;-83
2023/03/28 00:29:34;;;;;;;9.63;1.50;;;;;;;1.13;99.81;101451.13;5004892;28;20112;-78
2023/03/28 00:32:00;;;;;;;8.95;1.13;;;;;;;1.11;100.00;101462.19;5000150;28;20064;-81
2023/03/28 00:34:27;;;;;;;6.75;1.70;;;;;;;1.09;100.00;101463.78;5003807;28;20137;-80
2023/03/28 00:36:53;;;;;;;5.57;1.40;;;;;;;1.09;100.00;101458.63;5010394;28;20060;-79
2023/03/28 00:39:20;;;;;;;8.00;3.33;;;;;;;1.02;100.00;101462.66;4992630;28;20483;-86
2023/03/28 00:41:48;;;;;;;9.93;2.03;;;;;;;0.96;100.00;101468.41;5005421;28;20125;-81
2023/03/28 00:44:44;;;;;;;6.05;1.85;;;;;;;0.75;100.00;101470.94;5001631;28;20053;-82
2023/03/28 00:48:00;;;;;;;9.65;1.85;;;;;;;0.58;100.00;101484.78;5005988;28;20129;-77
2023/03/28 00:50:33;;;;;;;5.82;1.70;;;;;;;0.41;100.00;101487.47;5006830;28;20720;-79
2023/03/28 00:53:14;;;;;;;6.50;1.27;;;;;;;0.43;100.00;101487.53;5010055;28;20204;-88
2023/03/28 00:55:47;;;;;;;6.90;2.15;;;;;;;0.49;100.00;101488.69;5016551;28;20064;-77
2023/03/28 00:58:25;;;;;;;3.85;1.25;;;;;;;0.51;100.00;101485.28;5002372;28;20125;-81
2023/03/28 01:00:53;;;;;;;6.70;1.60;;;;;;;0.51;100.00;101500.75;5018604;28;20046;-81
2023/03/28 01:03:26;;;;;;;2.88;1.13;;;;;;;0.56;100.00;101487.28;5004467;28;20052;-81
2023/03/28 01:05:52;;;;;;;3.70;1.33;;;;;;;0.56;100.00;101492.44;4988852;28;20042;-78
2023/03/28 01:08:26;;;;;;;12.77;3.10;;;;;;;0.50;100.00;101497.31;5006188;28;20050;-79
2023/03/28 01:10:52;;;;;;;4.80;1.85;;;;;;;0.45;100.00;101499.66;5005743;28;20133;-79
2023/03/28 01:13:25;;;;;;;8.48;1.20;;;;;;;0.47;100.00;101502.28;5004224;28;20034;-80
2023/03/28 01:15:51;;;;;;;6.68;1.08;;;;;;;0.53;100.00;101499.16;5002808;28;20041;-79
2023/03/28 01:18:21;;;;;;;6.07;1.55;;;;;;;0.51;100.00;101498.19;5004901;28;20049;-88
2023/03/28 01:21:20;;;;;;;10.35;2.88;;;;;;;0.46;100.00;101500.56;4984879;28;20054;-86
2023/03/28 01:24:25;;;;;;;7.53;1.70;;;;;;;0.38;100.00;101507.03;5004091;28;20107;-77
2023/03/28 01:27:13;;;;;;;;;;;;;;;0.38;100.00;101510.50;5006742;28;20046;-78
2023/03/28 01:30:28;;;;;;;5.45;1.30;;;;;;;0.50;100.00;101515.34;5002349;28;19922;-79
2023/03/28 01:33:30;;;;;;;13.35;1.92;;;;;;;0.55;100.00;101505.22;5002907;28;20049;-80
2023/03/28 01:36:31;;;;;;;9.57;2.22;;;;;;;0.66;100.00;101514.34;5005492;28;20125;-77
2023/03/28 01:39:30;;;;;;;10.88;2.85;;;;;;;0.77;100.00;101518.28;5004977;28;20120;-78
2023/03/28 01:42:13;;;;;;;11.68;2.10;;;;;;;0.81;100.00;101519.31;5006976;28;20056;-80
2023/03/28 01:44:50;;;;;;;6.55;1.33;;;;;;;0.77;100.00;101525.13;5005399;28;20558;-85
2023/03/28 01:47:27;;;;;;;5.13;1.42;;;;;;;0.61;100.00;101526.13;5005355;28;20452;-82
2023/03/28 01:50:20;;;;;;;11.13;1.77;;;;;;;0.42;100.00;101527.00;5005475;28;20124;-83
2023/03/28 01:53:36;;;;;;;11.13;1.77;;;;;;;0.30;100.00;101529.84;5002187;28;20495;-81
2023/03/28 01:56:31;;;;;;;9.98;1.80;;;;;;;0.25;100.00;101533.91;4991380;28;20096;-83
2023/03/28 01:59:06;;;;;;;6.38;2.15;;;;;;;0.36;100.00;101537.00;4988707;28;20120;-78
2023/03/28 02:01:52;;;;;;;9.27;1.73;;;;;;;0.38;100.00;101531.13;5006597;28;20038;-79
2023/03/28 02:04:23;;;;;;;2.97;1.50;;;;;;;0.35;100.00;101541.25;5005805;28;20042;-79
2023/03/28 02:06:52;;;;;;;7.90;1.83;;;;;;;0.37;100.00;101538.78;5005490;28;20495;-81
2023/03/28 02:09:23;;;;;;;8.32;1.65;;;;;;;0.37;100.00;101536.19;5007796;28;20097;-83
2023/03/28 02:11:57;;;;;;;7.65;2.00;;;;;;;0.42;100.00;101537.28;4984506;28;20046;-81
2023/03/28 02:14:28;;;;;;;11.30;2.15;;;;;;;0.40;100.00;101528.59;5004276;28;20049;-79
2023/03/28 02:17:03;;;;;;;6.55;1.90;;;;;;;0.31;100.00;101536.78;4988446;28;20049;-79
2023/03/28 02:19:32;;;;;;;12.88;1.95;;;;;;;0.28;100.00;101534.94;5010041;28;20076;-80
2023/03/28 02:22:32;;;;;;;5.78;1.52;;;;;;;0.28;100.00;101539.22;5009124;28;20073;-82
2023/03/28 02:24:59;;;;;;;7.50;2.10;;;;;;;0.26;100.00;101536.56;5001119;28;20072;-79
2023/03/28 02:27:25;;;;;;;5.72;2.53;;;;;;;0.23;100.00;101538.13;5010279;28;20049;-79
2023/03/28 02:29:53;;;;;;;13.93;2.67;;;;;;;0.16;100.00;101540.38;4993426;28;20088;-82
2023/03/28 02:32:22;;;;;;;24.90;4.65;;;;;;;0.11;100.00;101541.00;5004194;28;20046;-78
2023/03/28 02:34:52;;;;;;;7.80;1.52;;;;;;;0.02;100.00;101541.41;5004293;28;20061;-86
2023/03/28 02:37:32;;;;;;;7.88;1.90;;;;;;;-0.02;100.00;101540.38;5008604;28;20121;-78
2023/03/28 02:40:33;;;;;;;11.02;1.58;;;;;;;-0.03;100.00;101543.78;5003698;28;20117;-82
2023/03/28 02:43:43;;;;;;;4.13;1.52;;;;;;;-0.04;100.00;101544.59;5007258;28;20050;-78
2023/03/28 02:46:26;;;;;;;8.88;1.70;;;;;;;0.03;100.00;101548.34;5004182;28;20046;-83
2023/03/28 02:49:34;;;;;;;11.02;1.83;;;;;;;0.21;100.00;101545.78;5005599;28;20046;-82
2023/03/28 02:52:35;;;;;;;8.68;1.70;;;;;;;0.38;100.00;101551.72;5000931;28;20136;-82
2023/03/28 02:55:33;;;;;;;9.05;1.98;;;;;;;0.34;100.00;101557.53;4984114;28;20350;-83
2023/03/28 02:58:09;;;;;;;11.75;2.03;;;;;;;0.22;100.00;101559.50;4989254;28;20580;-80
2023/03/28 03:00:38;;;;;;;4.53;1.40;;;;;;;0.27;100.00;101555.47;4993216;28;20070;-82
2023/03/28 03:03:09;;;;;;;11.27;4.72;;;;;;;0.37;100.00;101556.81;5003479;28;20404;-83
2023/03/28 03:05:36;;;;;;;5.82;1.42;;;;;;;0.32;100.00;101551.41;5000264;28;20057;-83
2023/03/28 03:08:03;;;;;;;13.88;3.53;;;;;;;0.25;100.00;101559.66;5004583;28;20042;-79
2023/03/28 03:10:30;;;;;;;10.07;2.20;;;;;;;0.31;100.00;101559.94;5006867;28;20048;-80
2023/03/28 03:12:56;;;;;;;15.77;4.15;;;;;;;0.45;100.00;101563.19;5010277;28;20564;-78
2023/03/28 03:15:24;;;;;;;12.50;2.53;;;;;;;0.56;100.00;101563.69;5007361;28;20073;-82
2023/03/28 03:17:51;;;;;;;7.00;1.60;;;;;;;0.68;100.00;101572.00;5009089;28;20396;-81
2023/03/28 03:20:18;;;;;;;11.20;3.58;;;;;;;0.78;100.00;101570.72;4992020;28;20366;-79
2023/03/28 03:22:45;;;;;;;13.93;1.45;;;;;;;0.88;100.00;101569.44;4995191;28;20081;-80
2023/03/28 03:25:12;;;;;;;11.00;2.47;;;;;;;0.90;100.00;101575.53;5003668;28;20054;-78
2023/03/28 03:27:39;;;;;;;6.28;1.27;;;;;;;0.89;100.00;101576.38;5007526;28;20034;-79
2023/03/28 03:30:07;;;;;;;11.10;1.75;;;;;;;0.80;100.00;101584.56;5003918;28;20046;-80
2023/03/28 03:32:35;;;;;;;7.72;3.38;;;;;;;0.61;100.00;101580.25;5012247;28;20046;-78
2023/03/28 03:35:02;;;;;;;5.25;1.40;;;;;;;0.52;100.00;101577.25;5008701;28;20116;-78
2023/03/28 03:37:31;;;;;;;7.07;1.50;;;;;;;0.48;100.00;101582.25;5009686;28;20042;-83
2023/03/28 03:39:57;;;;;;;8.45;2.42;;;;;;;0.37;100.00;101590.28;5010209;28;20045;-79
2023/03/28 03:42:24;;;;;;;4.82;1.30;;;;;;;0.26;100.00;101585.50;5006317;28;20038;-81
2023/03/28 03:44:53;;;;;;;6.18;1.30;;;;;;;0.13;100.00;101596.91;4983222;28;20042;-80
2023/03/28 03:47:19;;;;;;;10.52;2.00;;;;;;;0.07;100.00;101588.00;5007975;28;20052;-80
2023/03/28 03:49:46;;;;;;;7.88;1.67;;;;;;;-0.04;100.00;101593.50;4991016;28;20577;-80
2023/03/28 03:52:14;;;;;;;9.80;1.80;;;;;;;-0.11;100.00;101590.53;5009104;28;20057;-80
2023/03/28 03:54:40;;;;;;;7.78;1.90;;;;;;;-0.20;100.00;101586.69;5004221;28;20045;-81
2023/03/28 03:57:07;;;;;;;6.15;1.60;;;;;;;-0.27;100.00;101584.63;4996798;28;20058;-84
2023/03/28 03:59:33;;;;;;;5.60;1.30;;;;;;;-0.31;100.00;101585.28;4990614;28;20045;-79
2023/03/28 04:02:01;;;;;;;6.05;1.65;;;;;;;-0.36;100.00;101597.91;5001474;28;20037;-79
2023/03/28 04:04:28;;;;;;;6.38;2.28;;;;;;;-0.39;100.00;101586.56;5007278;28;20121;-86
2023/03/28 04:06:56;;;;;;;5.28;1.65;;;;;;;-0.44;100.00;101591.50;4994236;28;20046;-78
2023/03/28 04:09:26;;;;;;;8.35;2.15;;;;;;;-0.45;100.00;101589.72;4993630;28;20038;-79
2023/03/28 04:11:54;;;;;;;15.10;2.05;;;;;;;-0.46;100.00;101589.66;5004158;28;20041;-78
2023/03/28 04:14:21;;;;;;;12.32;3.28;;;;;;;-0.51;100.00;101589.41;4993175;28;20073;-82
2023/03/28 04:16:49;;;;;;;8.25;1.65;;;;;;;-0.53;100.00;101591.03;5019611;28;20045;-82
2023/03/28 04:19:17;;;;;;;11.23;2.53;;;;;;;-0.59;100.00;101601.00;5007312;28;20128;-80
2023/03/28 04:21:47;;;;;;;13.00;2.45;;;;;;;-0.65;100.00;101601.56;5014724;28;20045;-80
2023/03/28 04:24:15;;;;;;;8.32;1.70;;;;;;;-0.63;100.00;101599.06;5011815;28;20080;-80
2023/03/28 04:26:44;;;;;;;23.88;3.75;;;;;;;-0.70;100.00;101606.44;4979771;28;20443;-79
2023/03/28 04:29:12;;;;;;;8.52;2.13;;;;;;;-0.68;100.00;101610.00;4987435;28;20396;-81
2023/03/28 04:31:39;;;;;;;7.95;2.28;;;;;;;-0.74;100.00;101613.94;5010148;28;20037;-78
2023/03/28 04:34:06;;;;;;;8.57;2.60;;;;;;;-0.74;100.00;101604.53;5009135;28;20149;-86
2023/03/28 04:36:33;;;;;;;8.30;1.88;;;;;;;-0.74;100.00;101612.25;5006244;28;20065;-79
2023/03/28 04:39:01;;;;;;;9.73;2.28;;;;;;;-0.68;100.00;101614.25;5002784;28;20137;-79
2023/03/28 04:41:28;;;;;;;13.63;2.42;;;;;;;-0.63;100.00;101617.94;4994761;28;20049;-77
2023/03/28 04:43:55;;;;;;;16.35;2.72;;;;;;;-0.61;100.00;101618.00;5000841;28;20101;-81
2023/03/28 04:46:21;;;;;;;13.40;2.20;;;;;;;-0.65;100.00;101626.38;4989756;28;20045;-77
2023/03/28 04:48:49;;;;;;;8.90;2.03;;;;;;;-0.72;100.00;101620.03;5006912;28;20068;-78
2023/03/28 04:51:16;;;;;;;11.40;2.40;;;;;;;-0.77;100.00;101619.81;5004675;28;20034;-86
2023/03/28 04:53:42;;;;;;;6.45;1.60;;;;;;;-0.77;100.00;101622.38;5011909;28;20048;-82
2023/03/28 04:56:12;;;;;;;9.63;2.42;;;;;;;-0.74;100.00;101634.50;5003831;28;20050;-84
2023/03/28 04:58:40;;;;;;;11.07;2.08;;;;;;;-0.76;100.00;101625.81;5006977;28;20053;-81
2023/03/28 05:01:10;;;;;;;5.43;2.22;;;;;;;-0.76;100.00;101639.56;5001430;28;20074;-91
2023/03/28 05:03:37;;;;;;;14.45;2.30;;;;;;;-0.82;100.00;101638.34;4985006;28;20337;-80
2023/03/28 05:06:06;;;;;;;12.82;1.98;;;;;;;-0.73;100.00;101642.31;5001277;28;20047;-87
2023/03/28 05:08:32;;;;;;;8.05;1.73;;;;;;;-0.60;100.00;101650.66;5026134;28;20077;-83
2023/03/28 05:10:59;;;;;;;15.52;2.80;;;;;;;-0.45;100.00;101654.03;4992542;28;20133;-79
2023/03/28 05:13:25;;;;;;;8.82;2.17;;;;;;;-0.29;100.00;101658.25;4999710;28;20041;-79
2023/03/28 05:15:51;;;;;;;9.77;1.88;;;;;;;-0.26;100.00;101663.59;5005009;28;20034;-80
2023/03/28 05:18:18;;;;;;;11.55;3.08;;;;;;;-0.29;100.00;101670.25;5008615;28;20057;-80
2023/03/28 05:20:44;;;;;;;9.10;1.55;;;;;;;-0.37;100.00;101663.00;4982155;28;20041;-79
2023/03/28 05:23:11;;;;;;;5.15;1.48;;;;;;;-0.41;100.00;101665.38;5006339;28;20804;-81
2023/03/28 05:25:38;;;;;;;9.88;3.17;;;;;;;-0.48;100.00;101673.56;5008610;28;20439;-85
2023/03/28 05:28:05;;;;;;;5.75;1.00;;;;;;;-0.50;100.00;101673.47;5008193;28;20049;-81
2023/03/28 05:30:31;;;;;;;16.40;2.20;;;;;;;-0.55;100.00;101673.25;4994129;28;20116;-79
2023/03/28 05:32:59;;;;;;;8.80;1.85;;;;;;;-0.59;100.00;101678.13;5007018;28;20041;-85
2023/03/28 05:35:26;;;;;;;6.18;1.90;;;;;;;-0.60;100.00;101678.94;5008080;28;20066;-79
2023/03/28 05:37:53;;;;;;;7.65;1.92;;;;;;;-0.58;100.00;101687.63;5010907;28;20049;-83
2023/03/28 05:40:20;;;;;;;12.70;1.45;;;;;;;-0.62;100.00;101685.72;4989320;28;20046;-79
2023/03/28 05:42:47;;;;;;;6.68;1.65;;;;;;;-0.60;100.00;101686.66;4995407;28;20045;-80
2023/03/28 05:45:13;;;;;;;5.43;1.90;;;;;;;-0.59;100.00;101693.56;5007023;28;20468;-78
2023/03/28 05:47:41;;;;;;;8.55;1.52;;;;;;;-0.55;100.00;101690.34;5010994;28;20038;-79
2023/03/28 05:50:09;;;;;;;8.45;2.17;;;;;;;-0.53;100.00;101702.50;5007455;28;20045;-79
2023/03/28 05:52:36;;;;;;;16.40;2.72;;;;;;;-0.50;100.00;101701.78;4992947;28;20100;-84
2023/03/28 05:55:02;;;;;;;9.43;1.65;;;;;;;-0.42;100.00;101702.19;5011879;28;20057;-84
2023/03/28 05:57:29;;;;;;;10.18;1.73;;;;;;;-0.36;100.00;101705.09;5017673;28;20042;-82
2023/03/28 05:59:55;;;;;;;5.70;1.90;;;;;;;-0.33;100.00;101710.38;5010138;28;20072;-80
2023/03/28 06:02:23;;;;;;;9.98;2.40;;;;;;;-0.32;100.00;101711.28;4982770;28;20137;-79
2023/03/28 06:04:53;;;;;;;4.25;2.17;;;;;;;-0.27;100.00;101714.97;4990049;28;20043;-79
2023/03/28 06:07:20;;;;;;;13.15;1.83;;;;;;;-0.24;100.00;101715.13;5003270;28;20042;-80
2023/03/28 06:09:47;;;;;;;7.20;2.20;;;;;;;-0.23;100.00;101712.63;4986409;28;20544;-79
2023/03/28 06:12:13;;;;;;;11.13;2.25;;;;;;;-0.12;100.00;101715.75;5005239;28;20500;-77
2023/03/28 06:14:40;;;;;;;11.00;1.98;;;;;;;0.10;100.00;101725.47;5012510;28;20095;-84
2023/03/28 06:17:07;;;;;;;7.10;1.88;;;;;;;0.28;100.00;101722.06;5009487;28;20049;-80
2023/03/28 06:19:33;;;;;;;7.05;2.15;;;;;;;0.40;100.00;101722.66;5006018;28;20117;-81
2023/03/28 06:21:59;;;;;;;8.23;1.58;;;;;;;0.43;100.00;101733.13;5009504;28;20057;-82
2023/03/28 06:24:27;;;;;;;17.13;3.22;;;;;;;0.42;100.00;101738.22;4996482;28;20046;-79
2023/03/28 06:26:53;;;;;;;5.85;1.80;;;;;;;0.44;100.00;101732.34;4992770;28;20048;-78
2023/03/28 06:29:20;;;;;;;15.13;4.05;;;;;;;0.51;100.00;101736.09;4993530;28;20550;-78
2023/03/28 06:31:47;;;;;;;8.90;2.80;;;;;;;0.74;100.00;101732.03;4991539;28;20124;-83
2023/03/28 06:34:13;;;;;;;15.98;2.65;;;;;;;1.12;100.00;101721.81;5009763;28;20073;-77
2023/03/28 06:36:39;;;;;;;20.08;4.60;;;;;;;1.53;100.00;101727.13;4995934;28;20056;-84
2023/03/28 06:39:06;;;;;;;19.17;4.30;;;;;;;1.97;100.00;101726.50;5008795;28;20476;-80
2023/03/28 06:41:33;;;;;;;25.23;3.80;;;;;;;2.30;100.00;101731.34;5011675;28;20045;-83
2023/03/28 06:44:00;;;;;;;12.35;2.42;;;;;;;2.57;100.00;101730.75;5007829;28;20049;-79
2023/03/28 06:46:26;;;;;;;19.15;3.45;;;;;;;2.84;95.68;101731.78;5005487;28;20049;-79
2023/03/28 06:48:53;;;;;;;10.05;2.80;;;;;;;3.26;96.24;101737.78;5004195;28;20096;-77
2023/03/28 06:51:19;;;;;;;11.60;2.55;;;;;;;3.73;92.09;101740.38;4990463;28;20047;-79
2023/03/28 06:53:46;;;;;;;9.88;2.20;;;;;;;3.98;90.68;101741.28;4993848;28;20046;-79
2023/03/28 06:56:13;;;;;;;7.10;2.10;;;;;;;3.90;88.71;101742.72;4994946;28;20397;-80
2023/03/28 06:58:39;;;;;;;13.77;2.47;;;;;;;3.89;89.83;101753.91;5004197;28;20477;-84
2023/03/28 07:01:06;;;;;;;10.43;1.77;;;;;;;4.26;88.39;101744.81;4986624;28;20823;-80
2023/03/28 07:03:33;;;;;;;9.30;1.85;;;;;;;4.36;87.84;101757.25;5009376;28;20042;-80
2023/03/28 07:06:05;;;;;;;11.05;3.17;;;;;;;4.14;86.55;101753.03;5006698;28;20057;-85
2023/03/28 07:08:32;;;;;;;10.63;2.35;;;;;;;3.76;86.62;101745.66;5005380;28;20535;-80
2023/03/28 07:10:58;;;;;;;13.57;1.95;;;;;;;3.45;88.74;101760.03;4989490;28;20560;-80
2023/03/28 07:13:25;;;;;;;5.80;1.40;;;;;;;3.26;89.73;101760.16;5011574;28;21119;-77
2023/03/28 07:16:07;;;;;;;17.52;2.53;;;;;;;3.19;89.69;101758.19;5008248;28;20504;-83
2023/03/28 07:18:34;;;;;;;7.65;1.50;;;;;;;3.08;90.52;101766.41;4991335;28;20088;-79
2023/03/28 07:21:16;;;;;;;12.68;2.67;;;;;;;3.08;91.06;101774.16;4988462;28;20104;-83
2023/03/28 07:23:44;;;;;;;21.10;3.28;;;;;;;3.06;90.86;101769.75;5002190;28;20217;-81
2023/03/28 07:26:13;;;;;;;9.23;1.88;;;;;;;3.08;90.21;101774.16;5003467;28;20048;-80
2023/03/28 07:28:39;;;;;;;6.22;1.80;;;;;;;3.07;89.81;101774.97;4989725;28;20092;-83
2023/03/28 07:31:06;;;;;;;11.55;1.60;;;;;;;3.04;90.88;101784.31;5007881;28;20477;-84
2023/03/28 07:33:35;;;;;;;5.75;2.08;;;;;;;2.98;89.94;101782.38;5008733;28;20048;-79
2023/03/28 07:36:13;;;;;;;22.58;3.25;;;;;;;2.95;90.20;101784.84;4990565;28;20053;-85
2023/03/28 07:38:42;;;;;;;10.52;4.10;;;;;;;2.87;90.62;101794.88;4993187;28;20049;-83
2023/03/28 07:41:09;;;;;;;14.40;4.20;;;;;;;2.89;91.03;101790.63;4990404;28;20396;-79
2023/03/28 07:43:37;;;;;;;8.75;2.85;;;;;;;2.93;90.19;101795.13;4996269;28;20042;-79
2023/03/28 07:46:06;;;;;;;9.00;2.72;;;;;;;2.98;89.66;101795.31;4991645;28;20123;-82
2023/03/28 07:48:35;;;;;;;5.28;1.52;;;;;;;3.08;89.75;101799.16;4993233;28;20136;-78
2023/03/28 07:51:03;;;;;;;9.20;1.80;;;;;;;3.26;89.34;101801.56;4977069;28;20099;-84
2023/03/28 07:53:30;;;;;;;9.50;1.63;;;;;;;3.48;87.73;101805.88;4993675;28;20041;-82
2023/03/28 07:55:56;;;;;;;6.50;1.83;;;;;;;3.53;86.66;101806.94;4993476;28;20045;-79
2023/03/28 07:58:23;;;;;;;8.68;1.92;;;;;;;3.64;87.13;101809.97;4993944;28;20046;-79
2023/03/28 08:00:50;;;;;;;12.50;1.95;;;;;;;3.57;86.81;101814.03;4977096;28;20041;-80
2023/03/28 08:03:17;;;;;;;9.23;1.88;;;;;;;3.77;86.64;101813.91;4993107;28;20404;-78
2023/03/28 08:05:50;;;;;;;21.13;2.85;;;;;;;3.85;85.48;101804.69;4993005;28;20040;-77
2023/03/28 08:08:19;;;;;;;10.25;1.65;;;;;;;3.85;85.77;101814.19;4992598;28;20042;-80
2023/03/28 08:10:49;;;;;;;8.15;2.00;;;;;;;3.92;85.29;101819.63;4992908;28;20074;-87
2023/03/28 08:13:17;;;;;;;6.75;1.60;;;;;;;4.17;84.70;101823.13;4992356;28;20042;-78
2023/03/28 08:15:43;;;;;;;8.60;2.05;;;;;;;4.38;83.39;101822.13;4992698;28;20076;-78
2023/03/28 08:18:11;;;;;;;16.20;3.33;;;;;;;4.68;83.57;101811.06;4993239;28;20100;-78
2023/03/28 08:20:38;;;;;;;7.55;2.03;;;;;;;5.25;81.69;101808.63;4996711;28;20034;-80
2023/03/28 08:23:06;;;;;;;8.85;1.92;;;;;;;5.63;77.72;101808.00;4992030;28;20053;-79
2023/03/28 08:25:32;;;;;;;11.32;1.60;;;;;;;5.65;76.80;101813.28;4975022;28;20045;-78
2023/03/28 08:27:59;;;;;;;9.65;1.88;;;;;;;5.90;77.28;101815.75;4990255;28;20491;-82
2023/03/28 08:30:25;;;;;;;9.32;1.98;;;;;;;6.00;75.89;101810.84;4977567;28;20057;-83
2023/03/28 08:32:52;;;;;;;7.53;1.33;;;;;;;6.21;77.37;101800.19;4980134;28;20124;-84
2023/03/28 08:35:18;;;;;;;19.63;2.55;;;;;;;6.51;74.44;101805.31;4999914;28;20050;-77
2023/03/28 08:37:45;;;;;;;7.55;1.75;;;;;;;6.36;73.18;101802.31;5004999;28;20042;-77
2023/03/28 08:40:18;;;;;;;7.07;1.73;;;;;;;6.28;74.70;101813.41;4992836;28;20072;-84
2023/03/28 08:43:26;;;;;;;9.27;1.95;;;;;;;6.44;73.24;101808.56;4989684;28;20511;-78
2023/03/28 08:45:58;;;;;;;18.50;2.63;;;;;;;6.79;73.16;101801.72;5006168;28;20058;-80
2023/03/28 08:48:45;;;;;;;7.93;1.88;;;;;;;7.45;68.98;101806.72;5006753;28;20053;-77
2023/03/28 08:51:28;;;;;;;5.22;1.60;;;;;;;8.08;68.83;101809.78;5002140;28;20049;-77
2023/03/28 08:54:31;;;;;;;8.65;2.65;;;;;;;8.04;68.09;101810.56;5009273;28;20050;-87
2023/03/28 08:57:02;;;;;;;8.35;1.77;;;;;;;7.95;67.32;101812.16;5006939;28;20052;-78
2023/03/28 08:59:32;;;;;;;8.75;2.58;;;;;;;7.81;66.80;101815.28;4993903;28;20058;-79
2023/03/28 09:01:58;;;;;;;14.35;2.40;;;;;;;7.42;68.65;101815.34;5010718;28;20699;-80
2023/03/28 09:04:34;;;;;;;14.52;1.88;;;;;;;7.11;68.73;101830.25;5002053;28;20073;-79
2023/03/28 09:07:33;;;;;;;6.50;1.48;;;;;;;6.94;70.68;101829.81;5002361;28;20038;-88
2023/03/28 09:10:21;;;;;;;6.55;1.50;;;;;;;7.19;69.99;101830.44;4988256;28;20088;-81
2023/03/28 09:13:33;;;;;;;7.72;1.50;;;;;;;7.41;68.54;101829.22;5001311;28;20041;-79
2023/03/28 09:16:18;;;;;;;10.35;1.55;;;;;;;7.34;67.95;101821.22;5006331;28;20046;-79
2023/03/28 09:19:11;;;;;;;9.48;2.25;;;;;;;7.19;66.60;101835.63;5010621;28;20049;-80
2023/03/28 09:22:23;;;;;;;11.50;1.85;;;;;;;7.30;67.19;101830.72;5000993;28;20483;-78
2023/03/28 09:25:12;;;;;;;9.10;1.90;;;;;;;7.43;67.72;101821.41;5015192;28;20079;-80
2023/03/28 09:27:52;;;;;;;4.07;1.55;;;;;;;7.39;66.79;101833.53;5011974;28;20057;-79
2023/03/28 09:30:29;;;;;;;10.02;1.77;;;;;;;7.05;67.89;101824.91;5015270;28;20049;-76
2023/03/28 09:33:00;;;;;;;9.80;1.73;;;;;;;7.02;68.22;101837.81;5010487;28;20544;-81
2023/03/28 09:35:30;;;;;;;11.55;1.63;;;;;;;6.99;68.75;101827.34;4991209;28;20060;-80
2023/03/28 09:38:04;;;;;;;6.47;1.20;;;;;;;7.15;68.06;101833.81;5010442;28;20042;-78
2023/03/28 09:40:35;;;;;;;;;;;;;;;7.45;66.55;101831.03;5010773;28;20042;-80
2023/03/28 09:43:16;;;;;;;8.45;1.88;;;;;;;7.54;66.61;101830.38;5015054;28;19921;-78
2023/03/28 09:46:02;;;;;;;8.50;2.20;;;;;;;7.74;66.83;101828.22;5007336;28;20042;-78
2023/03/28 09:48:35;;;;;;;6.00;2.00;;;;;;;7.76;65.99;101834.34;4998457;28;20112;-77
2023/03/28 09:51:05;;;;;;;8.90;2.20;;;;;;;7.85;66.12;101833.66;4992134;28;20050;-83
2023/03/28 09:53:35;;;;;;;10.05;2.03;;;;;;;7.81;66.07;101829.22;5014156;28;20060;-79
2023/03/28 09:56:07;;;;;;;8.23;1.63;;;;;;;7.86;64.77;101824.09;5015720;28;20132;-86
2023/03/28 09:58:52;;;;;;;11.63;2.78;;;;;;;7.96;64.47;101828.66;5012905;28;20089;-77
2023/03/28 10:01:38;;;;;;;6.40;2.05;;;;;;;8.34;62.46;101827.66;4997682;28;20049;-85
2023/03/28 10:04:18;;;;;;;7.47;2.30;;;;;;;8.90;62.36;101814.81;5008830;28;20476;-78
2023/03/28 10:06:46;;;;;;;18.98;2.22;;;;;;;9.46;58.85;101818.25;5001001;28;20503;-79
2023/03/28 10:09:18;;;;;;;9.95;2.15;;;;;;;9.19;59.14;101822.22;5002795;28;20038;-81
2023/03/28 10:12:03;;;;;;;9.82;2.58;;;;;;;8.75;61.00;101823.22;4999265;28;20548;-78
2023/03/28 10:14:36;;;;;;;15.23;1.75;;;;;;;8.54;61.14;101826.34;4995469;28;20093;-85
2023/03/28 10:17:13;;;;;;;8.23;1.73;;;;;;;8.25;62.12;101825.75;5008570;28;20046;-80
2023/03/28 10:19:43;;;;;;;4.93;1.88;;;;;;;8.63;61.19;101827.34;5013770;28;20042;-79
2023/03/28 10:22:24;;;;;;;5.10;1.50;;;;;;;9.55;57.71;101814.91;5002802;28;20051;-79
2023/03/28 10:24:51;;;;;;;11.93;1.75;;;;;;;10.88;53.85;101809.41;5002854;28;20038;-81
2023/03/28 10:27:27;;;;;;;10.25;2.08;;;;;;;11.88;49.27;101813.56;4997421;28;20050;-82
2023/03/28 10:29:56;;;;;;;8.35;1.83;;;;;;;12.17;47.66;101812.81;5002551;28;20121;-81
2023/03/28 10:32:31;;;;;;;6.55;1.98;;;;;;;13.80;45.16;101797.88;5009629;28;20048;-78
2023/03/28 10:35:26;;;;;;;4.55;1.58;;;;;;;15.10;41.11;101791.78;5006481;28;20178;-79
2023/03/28 10:37:57;;;;;;;7.43;2.00;;;;;;;15.62;37.76;101801.78;5005243;28;20042;-84
2023/03/28 10:40:29;;;;;;;13.63;2.58;;;;;;;16.39;36.29;101799.91;5015022;28;20054;-80
2023/03/28 10:42:57;;;;;;;5.70;1.88;;;;;;;15.81;38.14;101797.19;5010546;28;20144;-78
2023/03/28 10:45:40;;;;;;;5.93;1.85;;;;;;;15.54;35.86;101796.56;5012694;28;20049;-82
2023/03/28 10:48:17;;;;;;;6.90;2.00;;;;;;;16.61;35.46;101791.63;5012859;28;20034;-79
2023/03/28 10:50:51;;;;;;;6.50;2.20;;;;;;;17.38;35.33;101784.16;5002034;28;20046;-81
2023/03/28 10:53:49;;;;;;;6.97;2.03;;;;;;;16.99;32.91;101788.41;4996209;28;20045;-80
2023/03/28 10:56:40;;;;;;;9.15;2.65;;;;;;;16.54;34.36;101797.03;5014539;28;20128;-81
2023/03/28 11:00:07;;;;;;;9.25;2.20;;;;;;;17.10;34.23;101795.28;4986267;28;20191;-80
2023/03/28 11:02:52;;;;;;;9.40;1.80;;;;;;;16.96;33.94;101800.78;4999146;28;20047;-82
2023/03/28 11:05:37;;;;;;;6.75;2.03;;;;;;;15.24;36.02;101804.81;5003151;28;20530;-88
2023/03/28 11:08:24;;;;;;;8.50;1.95;;;;;;;13.36;38.34;101803.28;5005870;28;20136;-83
2023/03/28 11:11:28;;;;;;;7.93;1.90;;;;;;;13.03;38.09;101814.66;5008288;28;20068;-80
2023/03/28 11:14:27;;;;;;;14.38;2.78;;;;;;;12.36;40.36;101804.09;5008776;28;20145;-84
2023/03/28 11:17:02;;;;;;;8.77;2.50;;;;;;;13.45;39.23;101797.09;5014146;28;20068;-82
2023/03/28 11:20:04;;;;;;;39.15;4.60;;;;;;;15.02;34.99;101789.22;5012967;28;20038;-87
2023/03/28 11:23:35;;;;;;;51.58;6.30;;;;;;;16.63;32.22;101795.16;5009921;28;20089;-80
2023/03/28 11:26:12;;;;;;;21.83;1.92;;;;;;;14.43;35.42;101800.19;4943071;28;20129;-81
2023/03/28 11:28:52;;;;;;;7.68;2.17;;;;;;;11.62;39.55;101813.44;5013402;28;20523;-81
2023/03/28 11:31:32;;;;;;;6.63;1.10;;;;;;;10.48;42.83;101816.94;5011514;28;20373;-83
2023/03/28 11:34:20;;;;;;;6.05;2.10;;;;;;;9.74;44.87;101809.06;4997674;28;20539;-83
2023/03/28 11:37:12;;;;;;;6.20;1.50;;;;;;;11.72;40.89;101799.47;5016481;28;20041;-81
2023/03/28 11:39:49;;;;;;;4.30;1.08;;;;;;;14.05;37.02;101791.63;5010174;28;20091;-82
2023/03/28 11:42:32;;;;;;;7.40;1.33;;;;;;;16.24;35.04;101785.16;4990197;28;20067;-83
2023/03/28 11:45:14;;;;;;;11.77;2.40;;;;;;;18.30;30.44;101770.78;5013609;28;20045;-83
2023/03/28 11:47:49;;;;;;;121.80;14.40;;;;;;;17.26;30.04;101769.38;4992067;28;20394;-82
2023/03/28 11:50:27;;;;;;;4.63;1.40;;;;;;;14.85;33.72;101771.78;4994553;28;20668;-82
2023/03/28 11:53:27;;;;;;;25.52;3.08;;;;;;;12.44;35.08;101775.25;5001609;28;20072;-84
2023/03/28 11:56:07;;;;;;;6.18;1.10;;;;;;;12.27;35.00;101780.47;4992523;28;20407;-83